Time;durP1;ratioP1;P1;durP2;ratioP2;P2;SDS_P1;SDS_P2;PMS_P1;PMS_P2;Temp;Humidity;BMP_temperature;BMP_pressure;BME280_temperature;BME280_humidity;BME280_pressure;Samples;Min_cycle;Max_cycle;Signal;HPM_P1;HPM_P2
2022/03/18 00:00:25;;;;;;;19.23;11.73;;;8.90;99.90;;;;;;5032673;28;20473;-45
2022/03/18 00:02:54;;;;;;;30.07;13.27;;;8.80;99.90;;;;;;5032806;28;20585;-44
2022/03/18 00:05:22;;;;;;;22.60;11.20;;;8.70;99.90;;;;;;5032734;28;20877;-43
2022/03/18 00:07:49;;;;;;;25.00;11.60;;;8.50;99.90;;;;;;5032815;28;20529;-43
2022/03/18 00:10:19;;;;;;;32.23;12.37;;;8.50;99.90;;;;;;5032375;28;20568;-44
2022/03/18 00:12:47;;;;;;;24.47;10.87;;;8.50;99.90;;;;;;5032521;28;20450;-44
2022/03/18 00:15:14;;;;;;;27.53;12.13;;;8.50;99.90;;;;;;5032356;28;20513;-44
2022/03/18 00:17:42;;;;;;;27.50;11.30;;;8.50;99.90;;;;;;5032308;28;20905;-45
2022/03/18 00:20:12;;;;;;;22.93;11.70;;;8.60;99.90;;;;;;5032624;28;20523;-43
2022/03/18 00:22:40;;;;;;;27.00;11.07;;;8.70;99.90;;;;;;5032511;28;20865;-43
2022/03/18 00:25:09;;;;;;;25.10;11.87;;;8.70;99.90;;;;;;5032698;28;20497;-43
2022/03/18 00:27:38;;;;;;;24.20;10.80;;;8.80;99.90;;;;;;5032492;28;20446;-43
2022/03/18 00:30:07;;;;;;;31.90;12.30;;;8.90;99.90;;;;;;5031850;28;20512;-43
2022/03/18 00:32:34;;;;;;;21.50;12.27;;;8.90;99.90;;;;;;5032612;28;20528;-43
2022/03/18 00:35:01;;;;;;;26.77;11.53;;;9.00;99.90;;;;;;5032116;28;20481;-43
2022/03/18 00:37:28;;;;;;;25.63;11.00;;;9.00;99.90;;;;;;5032585;28;20469;-43
2022/03/18 00:39:55;;;;;;;26.90;11.20;;;9.10;99.90;;;;;;5031470;28;20481;-43
2022/03/18 00:42:22;;;;;;;21.37;11.17;;;9.10;99.90;;;;;;5032129;28;20845;-43
2022/03/18 00:44:50;;;;;;;19.30;11.10;;;9.00;99.90;;;;;;5031943;28;20490;-43
2022/03/18 00:52:45;;;;;;;26.40;11.23;;;9.00;99.90;;;;;;5032186;28;21083;-44
2022/03/18 00:55:12;;;;;;;24.13;11.57;;;9.00;99.90;;;;;;5032391;28;20523;-44
2022/03/18 00:57:39;;;;;;;28.50;12.20;;;9.10;99.90;;;;;;5031865;28;20478;-43
2022/03/18 01:00:08;;;;;;;22.53;11.67;;;9.10;99.90;;;;;;5031669;28;20974;-45
2022/03/18 01:02:35;;;;;;;24.37;13.43;;;9.10;99.90;;;;;;5031990;28;20881;-43
2022/03/18 01:05:02;;;;;;;20.00;12.40;;;9.00;99.90;;;;;;5032433;28;21306;-43
2022/03/18 01:07:30;;;;;;;18.33;10.90;;;8.90;99.90;;;;;;5031692;28;20489;-44
2022/03/18 01:09:57;;;;;;;21.23;10.53;;;9.00;99.90;;;;;;5031449;28;20513;-44
2022/03/18 01:12:24;;;;;;;21.20;11.00;;;8.90;99.90;;;;;;5031580;28;20477;-43
2022/03/18 01:14:51;;;;;;;31.30;12.60;;;8.70;99.90;;;;;;5031103;28;20518;-45
2022/03/18 01:17:20;;;;;;;24.03;12.30;;;8.50;99.90;;;;;;5031667;28;20525;-43
2022/03/18 01:19:47;;;;;;;21.70;10.20;;;8.30;99.90;;;;;;5031312;28;20474;-43
2022/03/18 01:22:13;;;;;;;35.70;13.67;;;8.20;99.90;;;;;;5031468;28;20481;-45
2022/03/18 01:24:41;;;;;;;30.80;11.53;;;8.30;99.90;;;;;;5031722;28;20503;-43
2022/03/18 01:27:08;;;;;;;28.93;11.97;;;8.40;99.90;;;;;;5031518;28;21006;-43
2022/03/18 01:29:35;;;;;;;23.30;10.37;;;8.50;99.90;;;;;;5031052;28;20449;-44
2022/03/18 01:32:02;;;;;;;26.97;10.13;;;8.50;99.90;;;;;;5031408;28;20848;-43
2022/03/18 01:34:30;;;;;;;27.87;9.93;;;8.60;99.90;;;;;;5031214;28;20505;-43
2022/03/18 01:36:57;;;;;;;24.50;11.57;;;8.50;99.90;;;;;;5031520;28;20485;-43
2022/03/18 01:39:24;;;;;;;28.13;11.80;;;8.40;99.90;;;;;;5031267;28;20473;-44
2022/03/18 01:41:52;;;;;;;35.40;10.80;;;8.30;99.90;;;;;;5031158;28;20481;-43
2022/03/18 01:44:20;;;;;;;33.10;11.90;;;8.40;99.90;;;;;;5031347;28;20474;-43
2022/03/18 01:46:47;;;;;;;29.53;11.47;;;8.50;99.90;;;;;;5031237;28;20439;-44
2022/03/18 01:49:14;;;;;;;18.90;9.23;;;8.50;99.90;;;;;;5031345;28;20557;-44
2022/03/18 01:51:43;;;;;;;24.90;10.80;;;8.60;99.90;;;;;;5030909;28;20486;-43
2022/03/18 01:56:54;;;;;;;28.57;10.90;;;8.70;99.90;;;;;;5031127;28;20417;-44
2022/03/18 01:59:21;;;;;;;23.50;10.73;;;8.80;99.90;;;;;;5031039;28;20541;-43
2022/03/18 02:01:49;;;;;;;23.40;11.67;;;8.80;99.90;;;;;;5031014;28;20525;-44
2022/03/18 02:04:16;;;;;;;22.67;10.10;;;8.70;99.90;;;;;;5030838;28;20502;-43
2022/03/18 02:06:44;;;;;;;24.33;11.83;;;8.80;99.90;;;;;;5030623;28;20484;-43
2022/03/18 02:09:11;;;;;;;23.77;11.73;;;8.80;99.90;;;;;;5030738;28;20947;-43
2022/03/18 02:11:39;;;;;;;21.97;11.07;;;8.70;99.90;;;;;;5030402;28;20561;-43
2022/03/18 02:14:06;;;;;;;24.67;12.27;;;8.70;99.90;;;;;;5030750;28;20466;-44
2022/03/18 02:16:33;;;;;;;19.70;10.40;;;8.60;99.90;;;;;;5031975;28;20954;-44
2022/03/18 02:19:00;;;;;;;26.00;11.80;;;8.60;99.90;;;;;;5034509;28;20449;-43
2022/03/18 02:21:29;;;;;;;30.20;11.70;;;8.70;99.90;;;;;;5034715;28;20484;-44
2022/03/18 02:23:58;;;;;;;29.13;11.50;;;8.70;99.90;;;;;;5034675;28;20488;-43
2022/03/18 02:26:25;;;;;;;26.27;14.83;;;8.60;99.90;;;;;;5034843;28;20890;-43
2022/03/18 02:28:52;;;;;;;39.67;12.27;;;8.50;99.90;;;;;;5034684;28;20442;-44
2022/03/18 02:31:20;;;;;;;28.10;14.37;;;8.40;99.90;;;;;;5034689;28;20903;-43
2022/03/18 02:33:46;;;;;;;23.73;11.10;;;8.40;99.90;;;;;;5034579;28;20501;-44
2022/03/18 02:36:13;;;;;;;21.60;11.40;;;8.30;99.90;;;;;;5034308;28;20483;-43
2022/03/18 02:38:41;;;;;;;29.07;12.97;;;8.30;99.90;;;;;;5034209;28;20537;-43
2022/03/18 02:41:11;;;;;;;25.67;12.13;;;8.30;99.90;;;;;;5033887;28;20451;-43
2022/03/18 02:43:39;;;;;;;30.10;12.80;;;8.20;99.90;;;;;;5034675;28;20483;-45
2022/03/18 02:46:06;;;;;;;31.97;13.00;;;8.20;99.90;;;;;;5034243;28;20446;-43
2022/03/18 02:48:33;;;;;;;32.03;11.93;;;8.20;99.90;;;;;;5034221;28;20954;-44
2022/03/18 02:51:00;;;;;;;26.80;11.77;;;8.20;99.90;;;;;;5034034;28;20959;-43
2022/03/18 02:53:27;;;;;;;40.70;13.30;;;8.20;99.90;;;;;;5033936;28;20469;-43
2022/03/18 02:55:54;;;;;;;25.80;10.80;;;8.30;99.90;;;;;;5034120;28;20912;-43
2022/03/18 02:58:23;;;;;;;23.97;12.00;;;8.40;99.90;;;;;;5034270;28;20786;-43
2022/03/18 03:00:50;;;;;;;32.23;13.33;;;8.60;99.90;;;;;;5033898;28;20453;-45
2022/03/18 03:03:17;;;;;;;31.13;11.63;;;8.70;99.90;;;;;;5034006;28;20481;-43
2022/03/18 03:08:31;;;;;;;28.77;12.37;;;8.70;99.90;;;;;;5033852;28;20469;-43
2022/03/18 03:10:58;;;;;;;26.30;11.73;;;8.80;99.90;;;;;;5033380;28;20482;-44
2022/03/18 03:13:27;;;;;;;29.07;12.00;;;8.80;99.90;;;;;;5033711;28;20845;-44
2022/03/18 03:15:54;;;;;;;21.30;10.60;;;8.70;99.90;;;;;;5033517;28;20470;-43
2022/03/18 03:18:21;;;;;;;23.67;10.93;;;8.60;99.90;;;;;;5033623;28;20529;-43
2022/03/18 03:20:48;;;;;;;27.27;12.83;;;8.70;99.90;;;;;;5033443;28;20477;-44
2022/03/18 03:23:15;;;;;;;30.63;11.83;;;8.70;99.90;;;;;;5033563;28;20449;-43
2022/03/18 03:25:42;;;;;;;22.13;11.20;;;8.70;99.90;;;;;;5033793;28;20441;-44
2022/03/18 03:28:09;;;;;;;28.07;12.30;;;8.80;99.90;;;;;;5033266;28;20537;-44
2022/03/18 03:30:38;;;;;;;24.27;12.73;;;8.80;99.90;;;;;;5033100;28;20999;-43
2022/03/18 03:33:05;;;;;;;30.93;12.33;;;8.90;99.90;;;;;;5033533;28;20474;-43
2022/03/18 03:35:32;;;;;;;26.97;11.73;;;8.80;99.90;;;;;;5033514;28;20543;-43
2022/03/18 03:37:59;;;;;;;18.10;12.60;;;8.80;99.90;;;;;;5033602;28;20481;-44
2022/03/18 03:40:26;;;;;;;26.30;13.20;;;8.80;99.90;;;;;;5032736;28;20529;-43
2022/03/18 03:42:53;;;;;;;24.30;13.63;;;8.80;99.90;;;;;;5033206;28;20470;-44
2022/03/18 03:45:20;;;;;;;26.63;13.67;;;8.90;99.90;;;;;;5033391;28;20508;-43
2022/03/18 03:47:48;;;;;;;23.30;13.80;;;8.90;99.90;;;;;;5033061;28;20918;-43
2022/03/18 03:50:17;;;;;;;18.50;12.73;;;8.90;99.90;;;;;;5032787;28;20478;-44
2022/03/18 03:52:45;;;;;;;25.37;13.33;;;8.90;99.90;;;;;;5033224;28;20511;-43
2022/03/18 03:55:13;;;;;;;29.37;15.80;;;8.80;99.90;;;;;;5033061;28;20498;-44
2022/03/18 03:57:41;;;;;;;31.63;12.10;;;8.80;99.90;;;;;;5033287;28;20492;-43
2022/03/18 04:00:10;;;;;;;26.43;11.30;;;8.80;99.90;;;;;;5032630;28;20481;-44
2022/03/18 04:02:37;;;;;;;26.57;11.70;;;8.70;99.90;;;;;;5033059;28;20477;-43
2022/03/18 04:05:08;;;;;;;19.63;10.63;;;8.70;99.90;;;;;;5032708;28;20478;-43
2022/03/18 04:07:35;;;;;;;20.73;11.30;;;8.70;99.90;;;;;;5033128;28;20442;-44
2022/03/18 04:10:02;;;;;;;26.57;10.70;;;8.80;99.90;;;;;;5032444;28;20446;-44
2022/03/18 04:12:29;;;;;;;29.07;11.50;;;8.80;99.90;;;;;;5032392;28;20858;-44
2022/03/18 04:14:56;;;;;;;26.03;11.30;;;8.70;99.90;;;;;;5031163;28;20860;-44
2022/03/18 04:17:26;;;;;;;21.63;11.70;;;8.60;99.90;;;;;;5031059;28;20475;-44
2022/03/18 04:19:53;;;;;;;23.40;12.73;;;8.60;99.90;;;;;;5030571;28;21031;-43
2022/03/18 04:22:21;;;;;;;26.37;11.93;;;8.50;99.90;;;;;;5031030;28;20935;-44
2022/03/18 04:24:48;;;;;;;24.13;10.60;;;8.50;99.90;;;;;;5031176;28;20502;-43
2022/03/18 04:27:15;;;;;;;25.77;11.50;;;8.40;99.90;;;;;;5031034;28;20873;-44
2022/03/18 04:29:42;;;;;;;23.67;11.60;;;8.50;99.90;;;;;;5031364;28;20480;-44
2022/03/18 04:32:11;;;;;;;21.67;11.90;;;8.60;99.90;;;;;;5032264;28;20557;-44
2022/03/18 04:34:38;;;;;;;21.63;12.63;;;8.70;99.90;;;;;;5032261;28;20645;-44
2022/03/18 04:37:06;;;;;;;28.03;12.07;;;8.70;99.90;;;;;;5032290;28;20534;-43
2022/03/18 04:39:34;;;;;;;22.63;11.80;;;8.60;99.90;;;;;;5031143;28;20486;-44
2022/03/18 04:42:01;;;;;;;26.73;12.87;;;8.60;99.90;;;;;;5032342;28;20442;-44
2022/03/18 04:44:28;;;;;;;26.03;12.93;;;8.50;99.90;;;;;;5032463;28;20486;-43
2022/03/18 04:46:55;;;;;;;21.37;11.90;;;8.60;99.90;;;;;;5032244;28;20480;-43
2022/03/18 04:49:21;;;;;;;28.23;12.40;;;8.50;99.90;;;;;;5031575;28;20485;-44
2022/03/18 04:51:48;;;;;;;22.70;11.83;;;8.50;99.90;;;;;;5032021;28;20512;-43
2022/03/18 04:54:15;;;;;;;27.00;11.27;;;8.60;99.90;;;;;;5031517;28;20496;-45
2022/03/18 04:59:28;;;;;;;31.20;15.10;;;8.40;99.90;;;;;;5031686;28;20425;-44
2022/03/18 05:01:55;;;;;;;27.13;15.03;;;8.30;99.90;;;;;;5031752;28;20473;-43
2022/03/18 05:04:21;;;;;;;32.13;15.70;;;8.20;99.90;;;;;;5030949;28;20573;-44
2022/03/18 05:06:48;;;;;;;27.20;16.00;;;8.10;99.90;;;;;;5030359;28;20481;-43
2022/03/18 05:09:15;;;;;;;27.87;16.63;;;8.10;99.90;;;;;;5030150;28;20493;-44
2022/03/18 05:11:44;;;;;;;25.33;17.20;;;8.10;99.90;;;;;;5029851;28;20539;-44
2022/03/18 05:14:10;;;;;;;33.40;19.30;;;8.10;99.90;;;;;;5029891;28;20550;-43
2022/03/18 05:16:37;;;;;;;27.17;16.23;;;8.20;99.90;;;;;;5029982;28;20481;-43
2022/03/18 05:19:04;;;;;;;32.20;16.43;;;8.20;99.90;;;;;;5030463;28;20481;-43
2022/03/18 05:21:31;;;;;;;25.63;16.87;;;8.20;99.90;;;;;;5031573;28;20529;-43
2022/03/18 05:23:58;;;;;;;26.83;16.13;;;8.20;99.90;;;;;;5031531;28;20510;-43
2022/03/18 05:26:25;;;;;;;24.50;16.57;;;8.40;99.90;;;;;;5031781;28;20478;-43
2022/03/18 05:28:53;;;;;;;24.63;16.03;;;8.40;99.90;;;;;;5031328;28;21014;-43
2022/03/18 05:31:20;;;;;;;22.60;13.10;;;8.30;99.90;;;;;;5031356;28;20912;-43
2022/03/18 05:33:47;;;;;;;21.97;12.07;;;8.30;99.90;;;;;;5031513;28;20505;-43
2022/03/18 05:36:14;;;;;;;30.63;12.83;;;8.30;99.90;;;;;;5031476;28;20489;-45
2022/03/18 05:38:41;;;;;;;26.63;13.27;;;8.20;99.90;;;;;;5031177;28;20442;-43
2022/03/18 05:41:09;;;;;;;25.47;14.20;;;8.20;99.90;;;;;;5030972;28;20529;-43
2022/03/18 05:43:36;;;;;;;37.03;15.83;;;8.20;99.90;;;;;;5031306;28;20466;-43
2022/03/18 05:46:05;;;;;;;23.70;13.23;;;8.10;99.90;;;;;;5031351;28;20477;-43
2022/03/18 05:48:32;;;;;;;20.00;12.77;;;8.10;99.90;;;;;;5031684;28;20474;-43
2022/03/18 05:51:00;;;;;;;25.33;13.20;;;8.00;99.90;;;;;;5031100;28;20956;-44
2022/03/18 05:53:27;;;;;;;20.73;11.23;;;8.00;99.90;;;;;;5034843;28;20671;-46
2022/03/18 05:58:38;;;;;;;31.00;12.03;;;7.90;99.90;;;;;;5035081;28;20503;-43
2022/03/18 06:01:07;;;;;;;26.60;14.20;;;7.90;99.90;;;;;;5035352;28;20525;-43
2022/03/18 06:03:34;;;;;;;25.33;14.10;;;8.10;99.90;;;;;;5035104;28;20494;-43
2022/03/18 06:06:01;;;;;;;29.90;12.10;;;8.10;99.90;;;;;;5035186;28;20977;-43
2022/03/18 06:13:56;;;;;;;23.80;11.60;;;8.10;99.90;;;;;;5034743;28;20958;-44
2022/03/18 06:16:24;;;;;;;27.27;12.20;;;8.20;99.90;;;;;;5035110;28;20476;-43
2022/03/18 06:18:51;;;;;;;23.93;12.60;;;8.30;99.90;;;;;;5034842;28;20529;-43
2022/03/18 06:21:18;;;;;;;32.60;12.73;;;8.30;99.90;;;;;;5034889;28;20524;-43
2022/03/18 06:23:45;;;;;;;24.67;12.77;;;8.30;99.90;;;;;;5034629;28;20549;-44
2022/03/18 06:26:12;;;;;;;31.87;13.33;;;8.40;99.90;;;;;;5034503;28;20478;-43
2022/03/18 06:28:39;;;;;;;25.50;12.10;;;8.50;99.90;;;;;;5034794;28;20466;-43
2022/03/18 06:31:06;;;;;;;19.93;12.47;;;8.60;99.90;;;;;;5034413;28;20484;-43
2022/03/18 06:33:35;;;;;;;26.63;13.97;;;8.60;99.90;;;;;;5034703;28;20512;-43
2022/03/18 06:36:01;;;;;;;27.03;13.43;;;8.60;99.90;;;;;;5034480;28;20975;-44
2022/03/18 06:38:28;;;;;;;28.00;12.80;;;8.60;99.90;;;;;;5034459;28;20481;-43
2022/03/18 06:40:55;;;;;;;24.37;12.70;;;8.60;99.90;;;;;;5034325;28;20525;-43
2022/03/18 06:43:22;;;;;;;33.53;13.50;;;8.60;99.90;;;;;;5034254;28;20522;-45
2022/03/18 06:45:49;;;;;;;27.47;12.83;;;8.60;99.90;;;;;;5034284;28;21017;-43
2022/03/18 06:48:16;;;;;;;24.57;12.17;;;8.70;99.90;;;;;;5034462;28;20478;-44
2022/03/18 06:50:44;;;;;;;41.30;13.50;;;8.60;99.90;;;;;;5033955;28;20480;-44
2022/03/18 06:53:11;;;;;;;29.50;11.57;;;8.60;99.90;;;;;;5034102;28;20561;-45
2022/03/18 06:55:38;;;;;;;26.60;11.83;;;8.60;99.90;;;;;;5033747;28;20481;-43
2022/03/18 06:58:05;;;;;;;32.33;14.13;;;8.40;99.90;;;;;;5034313;28;20470;-43
2022/03/18 07:00:32;;;;;;;28.80;12.37;;;8.30;99.90;;;;;;5033955;28;20553;-44
2022/03/18 07:02:59;;;;;;;29.27;12.33;;;8.20;99.90;;;;;;5033717;28;20450;-43
2022/03/18 07:05:27;;;;;;;26.30;13.00;;;8.20;99.90;;;;;;5035115;28;20512;-43
2022/03/18 07:07:56;;;;;;;25.80;13.53;;;8.10;99.90;;;;;;5033983;28;20804;-45
2022/03/18 07:10:23;;;;;;;33.43;12.90;;;8.20;99.90;;;;;;5033830;28;20448;-43
2022/03/18 07:12:49;;;;;;;29.03;13.53;;;8.10;99.90;;;;;;5033526;28;20921;-43
2022/03/18 07:15:16;;;;;;;29.70;14.50;;;8.20;99.90;;;;;;5033431;28;20549;-44
2022/03/18 07:18:02;;;;;;;23.63;12.13;;;8.30;99.90;;;;;;5033838;28;20525;-43
2022/03/18 07:20:31;;;;;;;26.67;13.30;;;8.30;99.90;;;;;;5033678;28;20445;-43
2022/03/18 07:23:05;;;;;;;37.23;12.40;;;8.40;99.90;;;;;;5034231;28;20480;-43
2022/03/18 07:25:32;;;;;;;37.33;15.33;;;8.50;99.90;;;;;;5033756;28;20503;-43
2022/03/18 07:28:00;;;;;;;25.43;12.17;;;8.50;99.90;;;;;;5033798;28;20533;-44
2022/03/18 07:30:27;;;;;;;32.77;15.60;;;8.50;99.90;;;;;;5033161;28;20990;-43
2022/03/18 07:32:54;;;;;;;32.93;17.43;;;8.60;99.90;;;;;;5033498;28;20587;-43
2022/03/18 07:35:21;;;;;;;34.53;15.50;;;8.70;99.90;;;;;;5033509;28;20500;-43
2022/03/18 07:37:48;;;;;;;33.10;17.87;;;8.70;99.90;;;;;;5033356;28;20951;-43
2022/03/18 07:40:18;;;;;;;27.57;18.77;;;8.70;99.90;;;;;;5033158;28;20442;-43
2022/03/18 07:42:46;;;;;;;26.23;16.97;;;8.60;99.90;;;;;;5033146;28;20442;-43
2022/03/18 07:45:18;;;;;;;31.93;19.50;;;8.50;99.90;;;;;;5033183;28;20546;-43
2022/03/18 07:47:46;;;;;;;34.47;21.80;;;8.60;99.90;;;;;;5033269;28;20533;-43
2022/03/18 07:50:13;;;;;;;33.47;22.73;;;8.50;99.90;;;;;;5033030;28;20473;-43
2022/03/18 07:52:40;;;;;;;38.27;24.17;;;8.50;99.90;;;;;;5033133;28;20569;-44
2022/03/18 07:55:07;;;;;;;36.40;25.93;;;8.50;99.90;;;;;;5032645;28;20926;-44
2022/03/18 07:57:36;;;;;;;33.93;23.23;;;8.60;99.90;;;;;;5033119;28;20529;-43
2022/03/18 08:00:03;;;;;;;37.73;24.23;;;8.60;99.90;;;;;;5032623;28;20534;-43
2022/03/18 08:02:30;;;;;;;40.97;25.30;;;8.60;99.90;;;;;;5033048;28;20474;-43
2022/03/18 08:04:57;;;;;;;34.10;24.07;;;8.70;99.90;;;;;;5032841;28;20521;-43
2022/03/18 08:07:24;;;;;;;42.40;24.93;;;8.70;99.90;;;;;;5032933;28;20533;-44
2022/03/18 08:09:50;;;;;;;35.37;26.00;;;8.60;99.90;;;;;;5032859;28;20860;-43
2022/03/18 08:12:17;;;;;;;264.43;133.57;;;8.70;99.90;;;;;;5032395;28;20565;-43
2022/03/18 08:14:46;;;;;;;123.90;69.63;;;8.80;99.90;;;;;;5031152;28;20501;-43
2022/03/18 08:17:13;;;;;;;57.17;36.70;;;8.90;99.90;;;;;;5032890;28;20477;-44
2022/03/18 08:19:39;;;;;;;48.47;30.47;;;9.00;99.90;;;;;;5032457;28;20872;-44
2022/03/18 08:22:07;;;;;;;38.30;26.80;;;9.10;99.90;;;;;;5032566;28;20470;-44
2022/03/18 08:24:34;;;;;;;37.50;26.10;;;9.20;99.90;;;;;;5032696;28;20836;-44
2022/03/18 08:27:01;;;;;;;41.27;27.53;;;9.20;99.90;;;;;;5032840;28;20537;-44
2022/03/18 08:29:28;;;;;;;36.63;24.20;;;9.30;99.90;;;;;;5032433;28;20477;-43
2022/03/18 08:31:56;;;;;;;36.57;23.13;;;9.30;99.90;;;;;;5031989;28;20489;-43
2022/03/18 08:34:23;;;;;;;37.63;23.50;;;9.30;99.90;;;;;;5032010;28;20486;-45
2022/03/18 08:36:50;;;;;;;40.00;27.90;;;9.40;99.90;;;;;;5032298;28;20528;-43
2022/03/18 08:39:17;;;;;;;38.90;24.30;;;9.50;99.90;;;;;;5032416;28;20525;-44
2022/03/18 08:41:44;;;;;;;34.53;26.23;;;9.50;99.90;;;;;;5032151;28;20442;-44
2022/03/18 08:44:11;;;;;;;38.07;24.10;;;9.60;99.90;;;;;;5032408;28;20490;-43
2022/03/18 08:46:38;;;;;;;40.47;25.50;;;9.60;99.90;;;;;;5032210;28;20951;-45
2022/03/18 08:49:06;;;;;;;38.03;25.53;;;9.70;99.90;;;;;;5031861;28;20474;-44
2022/03/18 08:51:33;;;;;;;38.33;25.70;;;9.70;99.90;;;;;;5031898;28;20492;-44
2022/03/18 08:54:02;;;;;;;40.77;25.87;;;9.80;99.90;;;;;;5031625;28;20529;-44
2022/03/18 08:56:29;;;;;;;37.60;25.40;;;9.90;99.90;;;;;;5031919;28;20450;-44
2022/03/18 08:58:56;;;;;;;44.27;27.47;;;10.00;99.90;;;;;;5032233;28;20474;-44
2022/03/18 09:01:24;;;;;;;38.87;25.80;;;9.90;99.90;;;;;;5031918;28;20481;-44
2022/03/18 09:03:51;;;;;;;36.03;27.00;;;10.00;99.90;;;;;;5031346;28;20561;-44
2022/03/18 09:06:20;;;;;;;40.73;25.10;;;10.00;99.90;;;;;;5031687;28;20489;-43
2022/03/18 09:08:47;;;;;;;37.70;26.50;;;10.10;99.90;;;;;;5031447;28;20893;-44
2022/03/18 09:11:14;;;;;;;37.70;24.50;;;10.10;99.90;;;;;;5031447;28;20527;-44
2022/03/18 09:13:41;;;;;;;38.50;25.87;;;10.20;99.90;;;;;;5031400;28;20942;-44
2022/03/18 09:16:08;;;;;;;39.90;26.17;;;10.20;99.90;;;;;;5030862;28;20485;-44
2022/03/18 09:18:35;;;;;;;32.30;23.67;;;10.20;99.90;;;;;;5031757;28;20999;-43
2022/03/18 09:21:02;;;;;;;39.70;27.33;;;10.30;99.90;;;;;;5031700;28;20525;-44
2022/03/18 09:23:30;;;;;;;35.30;26.50;;;10.30;99.90;;;;;;5031480;28;21021;-44
2022/03/18 09:25:58;;;;;;;39.70;26.57;;;10.30;99.90;;;;;;5031522;28;20858;-44
2022/03/18 09:28:25;;;;;;;34.17;26.17;;;10.30;99.90;;;;;;5031576;28;20448;-44
2022/03/18 09:30:52;;;;;;;42.07;25.57;;;10.30;99.90;;;;;;5031173;28;20477;-44
2022/03/18 09:33:19;;;;;;;34.30;24.77;;;10.40;99.90;;;;;;5031303;28;20568;-45
2022/03/18 09:35:46;;;;;;;31.00;24.50;;;10.40;99.90;;;;;;5031701;28;20477;-44
2022/03/18 09:38:13;;;;;;;32.60;24.87;;;10.50;99.90;;;;;;5031675;28;20465;-44
2022/03/18 09:40:42;;;;;;;40.50;27.77;;;10.60;99.90;;;;;;5030899;28;20534;-44
2022/03/18 09:43:11;;;;;;;41.00;26.20;;;10.60;99.90;;;;;;5031277;28;20516;-45
2022/03/18 09:45:40;;;;;;;33.67;25.97;;;10.60;99.90;;;;;;5031515;28;20503;-44
2022/03/18 09:48:09;;;;;;;36.83;25.10;;;10.60;99.90;;;;;;5031362;28;20482;-44
2022/03/18 09:50:37;;;;;;;40.60;26.33;;;10.70;99.90;;;;;;5031234;28;20521;-44
2022/03/18 09:53:05;;;;;;;32.03;25.70;;;10.80;99.90;;;;;;5031231;28;20565;-45
2022/03/18 09:55:34;;;;;;;36.40;25.87;;;10.50;99.90;;;;;;5031239;28;20525;-43
2022/03/18 09:58:03;;;;;;;39.87;25.90;;;10.60;99.90;;;;;;5031075;28;20449;-44
2022/03/18 10:00:30;;;;;;;38.57;26.13;;;10.60;99.90;;;;;;5031294;28;20481;-44
2022/03/18 10:03:10;;;;;;;34.40;25.37;;;10.70;99.90;;;;;;5031096;28;20931;-44
2022/03/18 10:05:47;;;;;;;39.37;25.67;;;10.80;99.90;;;;;;5031128;28;20497;-44
2022/03/18 10:08:14;;;;;;;38.03;24.70;;;11.00;99.90;;;;;;5030950;28;20528;-44
2022/03/18 10:10:46;;;;;;;38.43;25.00;;;11.00;99.90;;;;;;5030954;28;20535;-44
2022/03/18 10:13:16;;;;;;;37.00;25.37;;;11.00;99.90;;;;;;5030689;28;20484;-44
2022/03/18 10:15:44;;;;;;;36.97;24.27;;;11.00;99.90;;;;;;5030172;28;20450;-44
2022/03/18 10:18:12;;;;;;;40.03;25.57;;;11.10;99.90;;;;;;5030924;28;20478;-44
2022/03/18 10:20:40;;;;;;;35.73;23.80;;;11.10;99.90;;;;;;5030981;28;20450;-44
2022/03/18 10:23:21;;;;;;;39.03;24.80;;;11.20;99.90;;;;;;5031079;28;20446;-44
2022/03/18 10:25:51;;;;;;;30.43;23.60;;;11.30;99.90;;;;;;5031079;28;20488;-43
2022/03/18 10:28:36;;;;;;;55.60;25.60;;;11.30;99.90;;;;;;5030891;28;20939;-44
2022/03/18 10:31:18;;;;;;;31.50;22.70;;;11.60;99.90;;;;;;5030444;28;20450;-44
2022/03/18 10:39:25;;;;;;;40.47;28.27;;;11.90;99.90;;;;;;5034209;28;20453;-44
2022/03/18 10:41:52;;;;;;;38.37;24.60;;;11.90;99.90;;;;;;5034318;28;20506;-44
2022/03/18 10:44:20;;;;;;;36.93;24.80;;;11.80;99.90;;;;;;5034757;28;20490;-44
2022/03/18 10:46:49;;;;;;;38.80;24.90;;;11.60;99.90;;;;;;5034495;28;20482;-45
2022/03/18 10:49:17;;;;;;;40.90;25.80;;;11.60;99.90;;;;;;5034123;28;20446;-44
2022/03/18 10:51:44;;;;;;;34.20;23.53;;;11.50;99.90;;;;;;5034211;28;20459;-44
2022/03/18 10:54:11;;;;;;;37.10;23.70;;;11.40;99.90;;;;;;5033505;28;20513;-44
2022/03/18 10:56:56;;;;;;;37.07;25.40;;;11.50;99.90;;;;;;5034131;28;20525;-46
2022/03/18 10:59:26;;;;;;;39.70;26.03;;;11.60;99.90;;;;;;5033995;28;20528;-43
2022/03/18 11:01:53;;;;;;;33.87;24.87;;;11.70;99.90;;;;;;5033857;28;20446;-44
2022/03/18 11:04:23;;;;;;;33.50;24.40;;;11.70;99.90;;;;;;5034139;28;20511;-45
2022/03/18 11:11:06;;;;;;;39.27;23.73;;;11.70;99.90;;;;;;5032815;28;20508;-44
2022/03/18 11:12:23;;;;;;;34.97;21.07;;;11.90;99.90;;;;;;5033587;28;20445;-44
2022/03/18 11:14:55;;;;;;;41.93;22.00;;;12.00;99.90;;;;;;5033585;28;20482;-44
2022/03/18 11:17:23;;;;;;;29.20;20.57;;;12.50;99.90;;;;;;5033950;28;20547;-44
2022/03/18 11:19:53;;;;;;;30.17;19.83;;;12.70;99.90;;;;;;5033635;28;20982;-44
2022/03/18 11:22:21;;;;;;;31.40;20.37;;;12.60;99.90;;;;;;5034003;28;20453;-45
2022/03/18 11:24:49;;;;;;;32.80;22.60;;;12.60;99.90;;;;;;5033538;28;20462;-45
2022/03/18 11:27:17;;;;;;;30.00;19.50;;;12.70;99.90;;;;;;5034115;28;20529;-43
2022/03/18 11:29:45;;;;;;;26.60;18.93;;;12.80;99.90;;;;;;5033739;28;20442;-44
2022/03/18 11:32:23;;;;;;;33.10;21.10;;;12.80;99.90;;;;;;5033370;28;20480;-44
2022/03/18 11:34:52;;;;;;;25.03;19.03;;;12.70;99.90;;;;;;5034122;28;21133;-45
2022/03/18 11:37:20;;;;;;;30.33;22.00;;;12.50;99.90;;;;;;5040804;28;20514;-46
2022/03/18 11:39:47;;;;;;;29.50;21.27;;;12.30;99.90;;;;;;5038190;28;20438;-45
2022/03/18 11:42:19;;;;;;;29.27;20.87;;;12.20;99.90;;;;;;5041596;28;20869;-43
2022/03/18 11:44:52;;;;;;;35.83;21.57;;;12.20;99.90;;;;;;5038210;28;20461;-43
2022/03/18 11:47:41;;;;;;;32.37;20.70;;;12.10;99.90;;;;;;5030261;28;20526;-43
2022/03/18 11:50:48;;;;;;;32.70;20.30;;;12.20;99.90;;;;;;5031679;28;20504;-44
2022/03/18 11:53:31;;;;;;;29.77;19.10;;;12.20;99.90;;;;;;5031866;28;20477;-44
2022/03/18 11:56:09;;;;;;;29.63;19.73;;;12.30;99.90;;;;;;5032036;28;20474;-45
2022/03/18 11:58:36;;;;;;;26.43;18.90;;;12.40;99.90;;;;;;5032112;28;20449;-44
2022/03/18 12:01:04;;;;;;;26.63;18.50;;;12.50;99.90;;;;;;5032807;28;20470;-44
2022/03/18 12:03:37;;;;;;;28.03;19.50;;;12.40;99.90;;;;;;5032734;28;20955;-44
2022/03/18 12:06:04;;;;;;;25.80;19.63;;;12.50;99.90;;;;;;5032538;28;20442;-44
2022/03/18 12:08:58;;;;;;;25.97;17.17;;;12.60;99.90;;;;;;5032646;28;20478;-44
2022/03/18 12:11:27;;;;;;;24.13;18.23;;;12.70;99.90;;;;;;5031371;28;20462;-44
2022/03/18 12:13:54;;;;;;;30.90;18.10;;;12.90;99.90;;;;;;5031714;28;20565;-44
2022/03/18 12:16:21;;;;;;;27.23;16.47;;;12.90;99.90;;;;;;5032062;28;20478;-44
2022/03/18 12:19:09;;;;;;;26.40;17.47;;;13.00;99.90;;;;;;5032027;28;20478;-44
2022/03/18 12:21:43;;;;;;;26.40;15.80;;;13.20;99.90;;;;;;5032043;28;20470;-44
2022/03/18 12:24:12;;;;;;;27.40;18.00;;;13.20;99.90;;;;;;5032077;28;20465;-44
2022/03/18 12:26:40;;;;;;;18.40;15.80;;;13.20;99.90;;;;;;5032585;28;20442;-44
2022/03/18 12:29:08;;;;;;;24.63;16.50;;;13.10;99.90;;;;;;5031907;28;20478;-44
2022/03/18 12:31:35;;;;;;;20.30;14.97;;;13.20;99.90;;;;;;5032019;28;20641;-44
2022/03/18 12:34:08;;;;;;;25.60;14.80;;;13.20;99.90;;;;;;5032096;28;20493;-45
2022/03/18 12:36:37;;;;;;;23.70;14.60;;;13.40;99.90;;;;;;5032022;28;20469;-44
2022/03/18 12:39:12;;;;;;;21.20;14.70;;;13.50;99.90;;;;;;5031727;28;20442;-44
2022/03/18 12:41:40;;;;;;;20.70;13.40;;;13.50;99.90;;;;;;5032111;28;20486;-44
2022/03/18 12:44:08;;;;;;;57.00;16.10;;;13.50;99.90;;;;;;5031749;28;20967;-44
2022/03/18 12:46:37;;;;;;;21.93;13.60;;;13.50;99.90;;;;;;5031956;28;20538;-44
2022/03/18 12:49:10;;;;;;;19.03;13.27;;;13.40;99.90;;;;;;5031519;28;20577;-44
2022/03/18 12:51:37;;;;;;;17.30;12.30;;;13.40;99.90;;;;;;5031788;28;20474;-43
2022/03/18 12:54:04;;;;;;;65.77;15.67;;;13.40;99.90;;;;;;5030837;28;20987;-44
2022/03/18 12:56:31;;;;;;;22.03;14.60;;;13.40;99.90;;;;;;5031864;28;20480;-45
2022/03/18 12:58:59;;;;;;;23.63;13.93;;;13.30;99.90;;;;;;5031605;28;20474;-44
2022/03/18 13:01:27;;;;;;;26.70;15.60;;;13.40;99.90;;;;;;5031045;28;20446;-45
2022/03/18 13:03:55;;;;;;;20.37;12.70;;;13.40;99.90;;;;;;5087560;23;20470;-41
2022/03/18 13:06:27;;;;;;;23.60;13.63;;;13.40;99.90;;;;;;5030256;28;20450;-43
2022/03/18 13:09:05;;;;;;;18.90;13.30;;;13.30;99.90;;;;;;5031595;28;20446;-40